CheckWX is a tool to help pilots better visualize weather data.  It is not intended as a substitute for an official pre-flight weather briefing.

17:02:42 UTC

LQBK METAR
Banja Luka International Airport
Banja Luka, Bosnia and Herzegovina
Current

33 mins ago

LQBK 191630Z VRB02KT CAVOK 17/05 Q1024 NOSIG
Observed
Sep-19 @ 16:30 UTC
Wind
  • Variable at 2 KTS
Visibility
10,000+ meters
Flight Rules
VFR
Cloud Levels
  • Clear skies
Temperature
17°C / 63°F
Dewpoint
C / 41°F
Humidity
45%
Altimeter
30.24" Hg
Pressure
1023.92 hPa
Previous

1 hour ago

LQBK 191600Z 08004KT CAVOK 18/04 Q1024 NOSIG
Observed
Sep-19 @ 16:00 UTC
Wind
  • 080° at 4 KTS
Visibility
10,000+ meters
Flight Rules
VFR
Cloud Levels
  • Clear skies
Temperature
18°C / 64°F
Dewpoint
C / 39°F
Humidity
40%
Altimeter
30.24" Hg
Pressure
1023.92 hPa
Previous

2 hours ago

LQBK 191530Z 04005KT CAVOK 18/04 Q1024 NOSIG
Observed
Sep-19 @ 15:30 UTC
Wind
  • 040° at 5 KTS
Visibility
10,000+ meters
Flight Rules
VFR
Cloud Levels
  • Clear skies
Temperature
18°C / 64°F
Dewpoint
C / 39°F
Humidity
40%
Altimeter
30.24" Hg
Pressure
1023.92 hPa